sensor_id;sensor_type;location;lat;lon;timestamp;temperature;humidity
42199;DHT22;27868;45.184;5.786;2023-06-14T00:00:58;21.60;90.80
42199;DHT22;27868;45.184;5.786;2023-06-14T00:03:42;21.60;90.80
42199;DHT22;27868;45.184;5.786;2023-06-14T00:06:28;21.60;90.80
42199;DHT22;27868;45.184;5.786;2023-06-14T00:09:13;21.60;90.90
42199;DHT22;27868;45.184;5.786;2023-06-14T00:11:57;21.60;91.20
42199;DHT22;27868;45.184;5.786;2023-06-14T00:14:41;21.60;90.90
42199;DHT22;27868;45.184;5.786;2023-06-14T00:17:26;21.60;91.00
42199;DHT22;27868;45.184;5.786;2023-06-14T00:20:14;21.60;91.00
42199;DHT22;27868;45.184;5.786;2023-06-14T00:22:59;21.50;91.00
42199;DHT22;27868;45.184;5.786;2023-06-14T00:25:44;21.50;91.00
42199;DHT22;27868;45.184;5.786;2023-06-14T00:28:28;21.50;91.00
42199;DHT22;27868;45.184;5.786;2023-06-14T00:31:13;21.50;91.10
42199;DHT22;27868;45.184;5.786;2023-06-14T00:33:57;21.40;91.10
42199;DHT22;27868;45.184;5.786;2023-06-14T00:36:42;21.40;91.10
42199;DHT22;27868;45.184;5.786;2023-06-14T00:39:26;21.50;91.20
42199;DHT22;27868;45.184;5.786;2023-06-14T00:42:11;21.40;91.20
42199;DHT22;27868;45.184;5.786;2023-06-14T00:45:06;21.50;91.20
42199;DHT22;27868;45.184;5.786;2023-06-14T00:47:51;21.40;91.20
42199;DHT22;27868;45.184;5.786;2023-06-14T00:50:39;21.40;91.20
42199;DHT22;27868;45.184;5.786;2023-06-14T00:53:25;21.40;91.20
42199;DHT22;27868;45.184;5.786;2023-06-14T00:56:09;21.40;91.20
42199;DHT22;27868;45.184;5.786;2023-06-14T00:58:57;21.40;91.20
42199;DHT22;27868;45.184;5.786;2023-06-14T01:01:42;21.30;91.20
42199;DHT22;27868;45.184;5.786;2023-06-14T01:04:26;21.40;91.30
42199;DHT22;27868;45.184;5.786;2023-06-14T01:07:12;21.30;91.30
42199;DHT22;27868;45.184;5.786;2023-06-14T01:13:05;21.30;91.30
42199;DHT22;27868;45.184;5.786;2023-06-14T01:15:50;21.30;91.30
42199;DHT22;27868;45.184;5.786;2023-06-14T01:18:35;21.30;91.30
42199;DHT22;27868;45.184;5.786;2023-06-14T01:21:20;21.30;91.30
42199;DHT22;27868;45.184;5.786;2023-06-14T01:24:04;21.20;91.30
42199;DHT22;27868;45.184;5.786;2023-06-14T01:26:49;21.30;91.30
42199;DHT22;27868;45.184;5.786;2023-06-14T01:29:39;21.20;91.30
42199;DHT22;27868;45.184;5.786;2023-06-14T01:32:30;21.30;91.30
42199;DHT22;27868;45.184;5.786;2023-06-14T01:35:14;21.20;91.30
42199;DHT22;27868;45.184;5.786;2023-06-14T01:37:59;21.20;91.30
42199;DHT22;27868;45.184;5.786;2023-06-14T01:40:44;21.20;91.40
42199;DHT22;27868;45.184;5.786;2023-06-14T01:43:29;21.20;91.40
42199;DHT22;27868;45.184;5.786;2023-06-14T01:46:14;21.10;91.40
42199;DHT22;27868;45.184;5.786;2023-06-14T01:48:59;21.10;91.40
42199;DHT22;27868;45.184;5.786;2023-06-14T01:51:44;21.10;91.40
42199;DHT22;27868;45.184;5.786;2023-06-14T01:54:29;21.10;91.40
42199;DHT22;27868;45.184;5.786;2023-06-14T01:57:15;21.10;91.50
42199;DHT22;27868;45.184;5.786;2023-06-14T01:59:59;21.10;91.50
42199;DHT22;27868;45.184;5.786;2023-06-14T02:02:44;21.10;91.50
42199;DHT22;27868;45.184;5.786;2023-06-14T02:05:30;21.10;91.90
42199;DHT22;27868;45.184;5.786;2023-06-14T02:08:15;21.10;91.70
42199;DHT22;27868;45.184;5.786;2023-06-14T02:10:59;21.10;91.70
42199;DHT22;27868;45.184;5.786;2023-06-14T02:13:44;21.10;91.70
42199;DHT22;27868;45.184;5.786;2023-06-14T02:16:29;21.10;91.70
42199;DHT22;27868;45.184;5.786;2023-06-14T02:19:14;21.10;91.70
42199;DHT22;27868;45.184;5.786;2023-06-14T02:21:58;21.10;91.70
42199;DHT22;27868;45.184;5.786;2023-06-14T02:24:43;21.10;91.70
42199;DHT22;27868;45.184;5.786;2023-06-14T02:27:28;21.00;91.70
42199;DHT22;27868;45.184;5.786;2023-06-14T02:30:12;21.00;91.70
42199;DHT22;27868;45.184;5.786;2023-06-14T02:32:57;21.00;91.70
42199;DHT22;27868;45.184;5.786;2023-06-14T02:35:41;21.00;91.70
42199;DHT22;27868;45.184;5.786;2023-06-14T02:38:26;21.00;91.70
42199;DHT22;27868;45.184;5.786;2023-06-14T02:41:10;21.00;91.70
42199;DHT22;27868;45.184;5.786;2023-06-14T02:43:55;21.00;91.70
42199;DHT22;27868;45.184;5.786;2023-06-14T02:46:40;21.00;91.70
42199;DHT22;27868;45.184;5.786;2023-06-14T02:49:25;21.00;91.80
42199;DHT22;27868;45.184;5.786;2023-06-14T02:52:10;21.00;91.80
42199;DHT22;27868;45.184;5.786;2023-06-14T02:54:54;21.00;91.80
42199;DHT22;27868;45.184;5.786;2023-06-14T02:57:38;21.00;91.70
42199;DHT22;27868;45.184;5.786;2023-06-14T03:00:23;21.00;91.70
42199;DHT22;27868;45.184;5.786;2023-06-14T03:03:08;21.00;92.00
42199;DHT22;27868;45.184;5.786;2023-06-14T03:06:00;21.00;92.00
42199;DHT22;27868;45.184;5.786;2023-06-14T03:08:49;20.90;91.80
42199;DHT22;27868;45.184;5.786;2023-06-14T03:11:33;21.00;91.80
42199;DHT22;27868;45.184;5.786;2023-06-14T03:14:18;20.90;91.80
42199;DHT22;27868;45.184;5.786;2023-06-14T03:17:03;20.90;91.80
42199;DHT22;27868;45.184;5.786;2023-06-14T03:19:49;20.90;91.80
42199;DHT22;27868;45.184;5.786;2023-06-14T03:22:33;20.90;91.80
42199;DHT22;27868;45.184;5.786;2023-06-14T03:25:18;20.90;91.90
42199;DHT22;27868;45.184;5.786;2023-06-14T03:28:03;20.90;92.20
42199;DHT22;27868;45.184;5.786;2023-06-14T03:30:47;20.90;91.90
42199;DHT22;27868;45.184;5.786;2023-06-14T03:33:32;20.90;92.00
42199;DHT22;27868;45.184;5.786;2023-06-14T03:36:16;20.90;92.00
42199;DHT22;27868;45.184;5.786;2023-06-14T03:39:01;20.90;92.20
42199;DHT22;27868;45.184;5.786;2023-06-14T03:41:46;20.80;91.90
42199;DHT22;27868;45.184;5.786;2023-06-14T03:44:31;20.80;91.90
42199;DHT22;27868;45.184;5.786;2023-06-14T03:47:15;20.80;91.90
42199;DHT22;27868;45.184;5.786;2023-06-14T03:50:03;20.80;92.20
42199;DHT22;27868;45.184;5.786;2023-06-14T03:52:48;20.80;91.90
42199;DHT22;27868;45.184;5.786;2023-06-14T03:55:33;20.80;91.90
42199;DHT22;27868;45.184;5.786;2023-06-14T03:58:18;20.80;92.00
42199;DHT22;27868;45.184;5.786;2023-06-14T04:01:02;20.80;92.00
42199;DHT22;27868;45.184;5.786;2023-06-14T04:03:47;20.80;92.00
42199;DHT22;27868;45.184;5.786;2023-06-14T04:06:31;20.80;92.00
42199;DHT22;27868;45.184;5.786;2023-06-14T04:09:16;20.80;92.00
42199;DHT22;27868;45.184;5.786;2023-06-14T04:12:03;20.80;92.10
42199;DHT22;27868;45.184;5.786;2023-06-14T04:14:48;20.80;92.10
42199;DHT22;27868;45.184;5.786;2023-06-14T04:17:33;20.80;92.10
42199;DHT22;27868;45.184;5.786;2023-06-14T04:20:18;20.80;92.10
42199;DHT22;27868;45.184;5.786;2023-06-14T04:23:12;20.80;92.40
42199;DHT22;27868;45.184;5.786;2023-06-14T04:25:57;20.80;92.40
42199;DHT22;27868;45.184;5.786;2023-06-14T04:28:46;20.80;92.10
42199;DHT22;27868;45.184;5.786;2023-06-14T04:31:31;20.80;92.10
42199;DHT22;27868;45.184;5.786;2023-06-14T04:34:18;20.80;92.20
42199;DHT22;27868;45.184;5.786;2023-06-14T04:37:03;20.80;92.20
42199;DHT22;27868;45.184;5.786;2023-06-14T04:39:48;20.80;92.20
42199;DHT22;27868;45.184;5.786;2023-06-14T04:42:32;20.80;92.20
42199;DHT22;27868;45.184;5.786;2023-06-14T04:45:17;20.80;92.50
42199;DHT22;27868;45.184;5.786;2023-06-14T04:48:02;20.80;92.20
42199;DHT22;27868;45.184;5.786;2023-06-14T04:50:46;20.80;92.60
42199;DHT22;27868;45.184;5.786;2023-06-14T04:53:31;20.80;92.30
42199;DHT22;27868;45.184;5.786;2023-06-14T04:56:15;20.80;92.30
42199;DHT22;27868;45.184;5.786;2023-06-14T04:59:01;20.80;92.30
42199;DHT22;27868;45.184;5.786;2023-06-14T05:01:45;20.80;92.30
42199;DHT22;27868;45.184;5.786;2023-06-14T05:04:32;20.80;92.40
42199;DHT22;27868;45.184;5.786;2023-06-14T05:07:16;20.80;92.40
42199;DHT22;27868;45.184;5.786;2023-06-14T05:10:01;20.80;92.70
42199;DHT22;27868;45.184;5.786;2023-06-14T05:12:46;20.90;92.70
42199;DHT22;27868;45.184;5.786;2023-06-14T05:15:32;20.80;92.40
42199;DHT22;27868;45.184;5.786;2023-06-14T05:18:16;20.80;92.50
42199;DHT22;27868;45.184;5.786;2023-06-14T05:21:01;20.90;92.50
42199;DHT22;27868;45.184;5.786;2023-06-14T05:23:45;20.90;92.50
42199;DHT22;27868;45.184;5.786;2023-06-14T05:26:30;20.90;92.50
42199;DHT22;27868;45.184;5.786;2023-06-14T05:29:14;20.90;92.50
42199;DHT22;27868;45.184;5.786;2023-06-14T05:31:59;20.90;92.50
42199;DHT22;27868;45.184;5.786;2023-06-14T05:34:44;20.90;92.50
42199;DHT22;27868;45.184;5.786;2023-06-14T05:37:28;20.90;92.50
42199;DHT22;27868;45.184;5.786;2023-06-14T05:40:13;20.90;92.50
42199;DHT22;27868;45.184;5.786;2023-06-14T05:42:57;21.00;92.50
42199;DHT22;27868;45.184;5.786;2023-06-14T05:45:42;21.00;92.50
42199;DHT22;27868;45.184;5.786;2023-06-14T05:48:30;21.00;92.60
42199;DHT22;27868;45.184;5.786;2023-06-14T05:51:14;21.00;92.60
42199;DHT22;27868;45.184;5.786;2023-06-14T05:54:03;21.00;92.60
42199;DHT22;27868;45.184;5.786;2023-06-14T05:56:47;21.00;92.60
42199;DHT22;27868;45.184;5.786;2023-06-14T05:59:32;21.00;92.60
42199;DHT22;27868;45.184;5.786;2023-06-14T06:02:16;21.00;92.90
42199;DHT22;27868;45.184;5.786;2023-06-14T06:05:01;21.00;92.70
42199;DHT22;27868;45.184;5.786;2023-06-14T06:07:46;21.00;93.00
42199;DHT22;27868;45.184;5.786;2023-06-14T06:10:31;21.00;92.70
42199;DHT22;27868;45.184;5.786;2023-06-14T06:13:15;21.00;92.70
42199;DHT22;27868;45.184;5.786;2023-06-14T06:16:00;21.00;92.70
42199;DHT22;27868;45.184;5.786;2023-06-14T06:18:45;21.00;92.80
42199;DHT22;27868;45.184;5.786;2023-06-14T06:21:30;21.00;92.80
42199;DHT22;27868;45.184;5.786;2023-06-14T06:24:15;21.00;92.80
42199;DHT22;27868;45.184;5.786;2023-06-14T06:27:00;21.00;92.90
42199;DHT22;27868;45.184;5.786;2023-06-14T06:29:45;21.10;93.20
42199;DHT22;27868;45.184;5.786;2023-06-14T06:32:29;21.10;93.00
42199;DHT22;27868;45.184;5.786;2023-06-14T06:35:14;21.10;93.00
42199;DHT22;27868;45.184;5.786;2023-06-14T06:37:59;21.10;93.10
42199;DHT22;27868;45.184;5.786;2023-06-14T06:40:44;21.10;93.10
42199;DHT22;27868;45.184;5.786;2023-06-14T06:43:29;21.10;93.10
42199;DHT22;27868;45.184;5.786;2023-06-14T06:46:13;21.20;93.20
42199;DHT22;27868;45.184;5.786;2023-06-14T06:48:58;21.20;93.20
42199;DHT22;27868;45.184;5.786;2023-06-14T06:51:43;21.20;93.20
42199;DHT22;27868;45.184;5.786;2023-06-14T06:54:28;21.20;93.20
42199;DHT22;27868;45.184;5.786;2023-06-14T06:57:13;21.20;93.30
42199;DHT22;27868;45.184;5.786;2023-06-14T06:59:58;21.20;93.40
42199;DHT22;27868;45.184;5.786;2023-06-14T07:02:42;21.20;93.60
42199;DHT22;27868;45.184;5.786;2023-06-14T07:05:27;21.30;93.80
42199;DHT22;27868;45.184;5.786;2023-06-14T07:08:12;21.30;93.80
42199;DHT22;27868;45.184;5.786;2023-06-14T07:10:56;21.30;93.60
42199;DHT22;27868;45.184;5.786;2023-06-14T07:13:41;21.30;93.50
42199;DHT22;27868;45.184;5.786;2023-06-14T07:16:25;21.40;93.50
42199;DHT22;27868;45.184;5.786;2023-06-14T07:19:10;21.40;93.60
42199;DHT22;27868;45.184;5.786;2023-06-14T07:21:54;21.50;93.60
42199;DHT22;27868;45.184;5.786;2023-06-14T07:24:39;21.50;93.90
42199;DHT22;27868;45.184;5.786;2023-06-14T07:27:24;21.60;93.60
42199;DHT22;27868;45.184;5.786;2023-06-14T07:30:09;21.60;93.60
42199;DHT22;27868;45.184;5.786;2023-06-14T07:32:54;21.60;93.80
42199;DHT22;27868;45.184;5.786;2023-06-14T07:35:39;21.70;93.80
42199;DHT22;27868;45.184;5.786;2023-06-14T07:38:24;21.70;93.40
42199;DHT22;27868;45.184;5.786;2023-06-14T07:41:09;21.80;93.30
42199;DHT22;27868;45.184;5.786;2023-06-14T07:43:53;21.80;93.40
42199;DHT22;27868;45.184;5.786;2023-06-14T07:46:38;21.90;93.10
42199;DHT22;27868;45.184;5.786;2023-06-14T07:49:22;21.90;93.10
42199;DHT22;27868;45.184;5.786;2023-06-14T07:52:07;22.00;93.20
42199;DHT22;27868;45.184;5.786;2023-06-14T07:54:51;22.10;93.20
42199;DHT22;27868;45.184;5.786;2023-06-14T07:57:36;22.10;93.10
42199;DHT22;27868;45.184;5.786;2023-06-14T08:00:21;22.20;93.00
42199;DHT22;27868;45.184;5.786;2023-06-14T08:03:05;22.20;93.20
42199;DHT22;27868;45.184;5.786;2023-06-14T08:05:50;22.20;92.90
42199;DHT22;27868;45.184;5.786;2023-06-14T08:08:35;22.30;92.80
42199;DHT22;27868;45.184;5.786;2023-06-14T08:11:19;22.30;92.60
42199;DHT22;27868;45.184;5.786;2023-06-14T08:14:04;22.30;92.60
42199;DHT22;27868;45.184;5.786;2023-06-14T08:16:49;22.40;92.40
42199;DHT22;27868;45.184;5.786;2023-06-14T08:19:34;22.40;92.40
42199;DHT22;27868;45.184;5.786;2023-06-14T08:22:19;22.50;92.10
42199;DHT22;27868;45.184;5.786;2023-06-14T08:25:03;22.50;92.00
42199;DHT22;27868;45.184;5.786;2023-06-14T08:27:48;22.50;92.10
42199;DHT22;27868;45.184;5.786;2023-06-14T08:30:33;22.40;92.40
42199;DHT22;27868;45.184;5.786;2023-06-14T08:33:18;22.50;92.10
42199;DHT22;27868;45.184;5.786;2023-06-14T08:36:02;22.50;92.10
42199;DHT22;27868;45.184;5.786;2023-06-14T08:38:47;22.50;92.10
42199;DHT22;27868;45.184;5.786;2023-06-14T08:41:31;22.60;92.00
42199;DHT22;27868;45.184;5.786;2023-06-14T08:44:17;22.50;91.80
42199;DHT22;27868;45.184;5.786;2023-06-14T08:47:01;22.50;91.70
42199;DHT22;27868;45.184;5.786;2023-06-14T08:49:47;22.50;91.90
42199;DHT22;27868;45.184;5.786;2023-06-14T08:52:33;22.60;91.40
42199;DHT22;27868;45.184;5.786;2023-06-14T08:55:24;22.50;91.60
42199;DHT22;27868;45.184;5.786;2023-06-14T08:58:10;22.60;91.50
42199;DHT22;27868;45.184;5.786;2023-06-14T09:22:34;22.90;90.80
42199;DHT22;27868;45.184;5.786;2023-06-14T10:47:26;25.80;83.20
42199;DHT22;27868;45.184;5.786;2023-06-14T10:50:11;26.10;81.40
42199;DHT22;27868;45.184;5.786;2023-06-14T10:52:57;26.30;80.70
42199;DHT22;27868;45.184;5.786;2023-06-14T10:55:42;26.40;79.70
42199;DHT22;27868;45.184;5.786;2023-06-14T10:58:26;26.70;77.50
42199;DHT22;27868;45.184;5.786;2023-06-14T11:01:11;26.90;75.60
42199;DHT22;27868;45.184;5.786;2023-06-14T11:03:56;26.90;71.80
42199;DHT22;27868;45.184;5.786;2023-06-14T11:06:45;27.00;75.70
42199;DHT22;27868;45.184;5.786;2023-06-14T11:12:22;27.30;75.10
42199;DHT22;27868;45.184;5.786;2023-06-14T11:15:07;27.50;73.80
42199;DHT22;27868;45.184;5.786;2023-06-14T11:17:52;27.50;72.20
42199;DHT22;27868;45.184;5.786;2023-06-14T11:20:40;27.60;74.90
42199;DHT22;27868;45.184;5.786;2023-06-14T11:23:24;27.70;75.10
42199;DHT22;27868;45.184;5.786;2023-06-14T11:26:09;27.80;73.00
42199;DHT22;27868;45.184;5.786;2023-06-14T11:28:57;27.90;74.40
42199;DHT22;27868;45.184;5.786;2023-06-14T11:31:46;28.10;73.90
42199;DHT22;27868;45.184;5.786;2023-06-14T11:34:31;28.20;69.40
42199;DHT22;27868;45.184;5.786;2023-06-14T11:37:15;28.20;71.10
42199;DHT22;27868;45.184;5.786;2023-06-14T11:40:00;28.40;71.50
42199;DHT22;27868;45.184;5.786;2023-06-14T11:42:45;28.60;69.20
42199;DHT22;27868;45.184;5.786;2023-06-14T11:45:29;28.70;68.40
42199;DHT22;27868;45.184;5.786;2023-06-14T11:48:14;28.80;68.30
42199;DHT22;27868;45.184;5.786;2023-06-14T11:50:59;28.80;69.40
42199;DHT22;27868;45.184;5.786;2023-06-14T11:53:44;28.90;67.40
42199;DHT22;27868;45.184;5.786;2023-06-14T11:56:29;29.00;70.00
42199;DHT22;27868;45.184;5.786;2023-06-14T11:59:13;28.90;68.30
42199;DHT22;27868;45.184;5.786;2023-06-14T12:01:58;29.10;68.80
42199;DHT22;27868;45.184;5.786;2023-06-14T12:04:51;29.30;69.60
42199;DHT22;27868;45.184;5.786;2023-06-14T12:07:36;29.50;69.60
42199;DHT22;27868;45.184;5.786;2023-06-14T12:10:21;29.70;67.60
42199;DHT22;27868;45.184;5.786;2023-06-14T12:13:06;29.80;67.50
42199;DHT22;27868;45.184;5.786;2023-06-14T12:15:54;29.90;66.60
42199;DHT22;27868;45.184;5.786;2023-06-14T12:18:39;29.90;67.80
42199;DHT22;27868;45.184;5.786;2023-06-14T12:21:24;29.90;61.90
42199;DHT22;27868;45.184;5.786;2023-06-14T12:24:12;29.90;63.70
42199;DHT22;27868;45.184;5.786;2023-06-14T12:26:57;30.10;65.10
42199;DHT22;27868;45.184;5.786;2023-06-14T12:29:43;30.20;67.20
42199;DHT22;27868;45.184;5.786;2023-06-14T12:32:28;30.30;64.90
42199;DHT22;27868;45.184;5.786;2023-06-14T12:35:14;30.40;64.40
42199;DHT22;27868;45.184;5.786;2023-06-14T12:38:00;30.50;64.50
42199;DHT22;27868;45.184;5.786;2023-06-14T12:40:45;30.60;62.30
42199;DHT22;27868;45.184;5.786;2023-06-14T12:43:29;30.50;63.30
42199;DHT22;27868;45.184;5.786;2023-06-14T12:46:14;30.60;60.00
42199;DHT22;27868;45.184;5.786;2023-06-14T12:48:58;30.40;59.40
42199;DHT22;27868;45.184;5.786;2023-06-14T12:51:43;30.60;59.50
42199;DHT22;27868;45.184;5.786;2023-06-14T12:54:27;30.50;59.00
42199;DHT22;27868;45.184;5.786;2023-06-14T12:57:12;30.60;57.70
42199;DHT22;27868;45.184;5.786;2023-06-14T12:59:56;30.70;58.30
42199;DHT22;27868;45.184;5.786;2023-06-14T13:02:41;30.80;58.80
42199;DHT22;27868;45.184;5.786;2023-06-14T13:05:25;30.90;56.90
42199;DHT22;27868;45.184;5.786;2023-06-14T13:08:10;31.00;57.70
42199;DHT22;27868;45.184;5.786;2023-06-14T13:10:54;31.10;55.10
42199;DHT22;27868;45.184;5.786;2023-06-14T13:13:39;31.30;56.40
42199;DHT22;27868;45.184;5.786;2023-06-14T13:16:23;31.30;57.00
42199;DHT22;27868;45.184;5.786;2023-06-14T13:19:08;31.40;56.70
42199;DHT22;27868;45.184;5.786;2023-06-14T13:21:53;31.60;56.20
42199;DHT22;27868;45.184;5.786;2023-06-14T13:24:37;31.60;51.10
42199;DHT22;27868;45.184;5.786;2023-06-14T13:27:22;31.60;54.10
42199;DHT22;27868;45.184;5.786;2023-06-14T13:30:08;31.70;52.80
42199;DHT22;27868;45.184;5.786;2023-06-14T13:32:53;31.70;53.70
42199;DHT22;27868;45.184;5.786;2023-06-14T13:35:38;31.80;54.50
42199;DHT22;27868;45.184;5.786;2023-06-14T13:38:22;31.90;54.30
42199;DHT22;27868;45.184;5.786;2023-06-14T13:41:06;31.80;47.20
42199;DHT22;27868;45.184;5.786;2023-06-14T13:43:51;31.70;49.60
42199;DHT22;27868;45.184;5.786;2023-06-14T13:46:35;31.80;50.20
42199;DHT22;27868;45.184;5.786;2023-06-14T13:49:20;31.80;48.50
42199;DHT22;27868;45.184;5.786;2023-06-14T13:52:05;31.80;49.70
42199;DHT22;27868;45.184;5.786;2023-06-14T13:54:49;31.80;50.10
42199;DHT22;27868;45.184;5.786;2023-06-14T13:57:34;31.90;49.10
42199;DHT22;27868;45.184;5.786;2023-06-14T14:00:18;31.80;49.40
42199;DHT22;27868;45.184;5.786;2023-06-14T14:03:03;31.80;46.70
42199;DHT22;27868;45.184;5.786;2023-06-14T14:05:48;31.80;49.20
42199;DHT22;27868;45.184;5.786;2023-06-14T14:08:32;31.70;41.50
42199;DHT22;27868;45.184;5.786;2023-06-14T14:11:17;31.60;43.60
42199;DHT22;27868;45.184;5.786;2023-06-14T14:14:02;31.60;47.50
42199;DHT22;27868;45.184;5.786;2023-06-14T14:16:46;31.60;43.80
42199;DHT22;27868;45.184;5.786;2023-06-14T14:19:31;31.60;47.50
42199;DHT22;27868;45.184;5.786;2023-06-14T14:22:15;31.60;44.00
42199;DHT22;27868;45.184;5.786;2023-06-14T14:25:00;31.60;46.50
42199;DHT22;27868;45.184;5.786;2023-06-14T14:27:44;31.50;44.80
42199;DHT22;27868;45.184;5.786;2023-06-14T14:30:29;31.50;46.90
42199;DHT22;27868;45.184;5.786;2023-06-14T14:33:14;31.50;46.20
42199;DHT22;27868;45.184;5.786;2023-06-14T14:36:01;31.60;46.80
42199;DHT22;27868;45.184;5.786;2023-06-14T14:38:48;31.60;47.60
42199;DHT22;27868;45.184;5.786;2023-06-14T14:41:32;31.60;46.10
42199;DHT22;27868;45.184;5.786;2023-06-14T14:44:17;31.60;46.10
42199;DHT22;27868;45.184;5.786;2023-06-14T14:47:02;31.50;44.90
42199;DHT22;27868;45.184;5.786;2023-06-14T14:49:47;31.50;47.40
42199;DHT22;27868;45.184;5.786;2023-06-14T14:52:32;31.40;43.90
42199;DHT22;27868;45.184;5.786;2023-06-14T14:55:16;31.30;46.80
42199;DHT22;27868;45.184;5.786;2023-06-14T14:58:00;31.10;46.00
42199;DHT22;27868;45.184;5.786;2023-06-14T15:00:45;31.20;44.80
42199;DHT22;27868;45.184;5.786;2023-06-14T15:03:29;31.10;46.70
42199;DHT22;27868;45.184;5.786;2023-06-14T15:06:14;31.10;44.80
42199;DHT22;27868;45.184;5.786;2023-06-14T15:08:59;30.90;45.20
42199;DHT22;27868;45.184;5.786;2023-06-14T15:11:43;30.80;45.40
42199;DHT22;27868;45.184;5.786;2023-06-14T15:14:28;30.70;46.60
42199;DHT22;27868;45.184;5.786;2023-06-14T15:17:13;30.60;48.20
42199;DHT22;27868;45.184;5.786;2023-06-14T15:19:57;30.40;48.30
42199;DHT22;27868;45.184;5.786;2023-06-14T15:22:42;30.40;48.70
42199;DHT22;27868;45.184;5.786;2023-06-14T15:25:26;30.40;48.60
42199;DHT22;27868;45.184;5.786;2023-06-14T15:28:11;30.30;49.00
42199;DHT22;27868;45.184;5.786;2023-06-14T15:30:56;30.10;49.80
42199;DHT22;27868;45.184;5.786;2023-06-14T15:33:40;30.20;47.70
42199;DHT22;27868;45.184;5.786;2023-06-14T15:36:25;30.10;45.70
42199;DHT22;27868;45.184;5.786;2023-06-14T15:39:10;29.90;47.80
42199;DHT22;27868;45.184;5.786;2023-06-14T15:41:54;29.80;48.60
42199;DHT22;27868;45.184;5.786;2023-06-14T15:44:39;29.70;46.20
42199;DHT22;27868;45.184;5.786;2023-06-14T15:47:25;29.60;49.40
42199;DHT22;27868;45.184;5.786;2023-06-14T15:50:10;29.60;50.20
42199;DHT22;27868;45.184;5.786;2023-06-14T15:52:54;29.50;50.50
42199;DHT22;27868;45.184;5.786;2023-06-14T15:55:39;29.40;50.60
42199;DHT22;27868;45.184;5.786;2023-06-14T15:58:23;29.30;49.20
42199;DHT22;27868;45.184;5.786;2023-06-14T16:01:08;29.30;52.60
42199;DHT22;27868;45.184;5.786;2023-06-14T16:03:53;29.10;51.90
42199;DHT22;27868;45.184;5.786;2023-06-14T16:06:37;29.10;53.20
42199;DHT22;27868;45.184;5.786;2023-06-14T16:09:22;29.10;53.30
42199;DHT22;27868;45.184;5.786;2023-06-14T16:12:08;29.10;52.60
42199;DHT22;27868;45.184;5.786;2023-06-14T16:14:52;29.10;54.00
42199;DHT22;27868;45.184;5.786;2023-06-14T16:17:38;29.20;54.40
42199;DHT22;27868;45.184;5.786;2023-06-14T16:20:22;29.20;54.80
42199;DHT22;27868;45.184;5.786;2023-06-14T16:23:07;29.30;53.60
42199;DHT22;27868;45.184;5.786;2023-06-14T16:25:51;29.20;53.10
42199;DHT22;27868;45.184;5.786;2023-06-14T16:28:36;29.20;52.30
42199;DHT22;27868;45.184;5.786;2023-06-14T16:31:20;29.10;53.50
42199;DHT22;27868;45.184;5.786;2023-06-14T16:34:06;29.20;52.70
42199;DHT22;27868;45.184;5.786;2023-06-14T16:36:55;29.30;49.80
42199;DHT22;27868;45.184;5.786;2023-06-14T16:39:40;29.20;50.50
42199;DHT22;27868;45.184;5.786;2023-06-14T16:42:24;29.20;50.30
42199;DHT22;27868;45.184;5.786;2023-06-14T16:45:09;29.10;50.30
42199;DHT22;27868;45.184;5.786;2023-06-14T16:47:54;29.10;51.50
42199;DHT22;27868;45.184;5.786;2023-06-14T16:50:39;29.10;50.10
42199;DHT22;27868;45.184;5.786;2023-06-14T16:53:23;29.00;50.80
42199;DHT22;27868;45.184;5.786;2023-06-14T16:56:08;29.00;49.50
42199;DHT22;27868;45.184;5.786;2023-06-14T16:58:56;29.10;49.40
42199;DHT22;27868;45.184;5.786;2023-06-14T17:01:41;29.00;49.40
42199;DHT22;27868;45.184;5.786;2023-06-14T17:04:25;29.00;49.10
42199;DHT22;27868;45.184;5.786;2023-06-14T17:07:10;28.90;47.90
42199;DHT22;27868;45.184;5.786;2023-06-14T17:09:54;28.80;49.10
42199;DHT22;27868;45.184;5.786;2023-06-14T17:12:39;28.80;50.30
42199;DHT22;27868;45.184;5.786;2023-06-14T17:15:25;28.70;46.10
42199;DHT22;27868;45.184;5.786;2023-06-14T17:18:09;28.70;49.20
42199;DHT22;27868;45.184;5.786;2023-06-14T17:20:54;28.60;48.00
42199;DHT22;27868;45.184;5.786;2023-06-14T17:23:38;28.60;49.20
42199;DHT22;27868;45.184;5.786;2023-06-14T17:26:23;28.50;50.20
42199;DHT22;27868;45.184;5.786;2023-06-14T17:29:07;28.50;48.10
42199;DHT22;27868;45.184;5.786;2023-06-14T17:31:52;28.40;48.70
42199;DHT22;27868;45.184;5.786;2023-06-14T17:34:36;28.30;49.00
42199;DHT22;27868;45.184;5.786;2023-06-14T17:37:21;28.30;47.70
42199;DHT22;27868;45.184;5.786;2023-06-14T17:40:06;28.20;48.30
42199;DHT22;27868;45.184;5.786;2023-06-14T17:42:50;28.20;48.10
42199;DHT22;27868;45.184;5.786;2023-06-14T17:45:35;28.10;48.50
42199;DHT22;27868;45.184;5.786;2023-06-14T17:48:19;28.00;46.50
42199;DHT22;27868;45.184;5.786;2023-06-14T17:51:04;27.90;49.20
42199;DHT22;27868;45.184;5.786;2023-06-14T17:53:49;27.90;49.60
42199;DHT22;27868;45.184;5.786;2023-06-14T17:56:33;27.80;49.90
42199;DHT22;27868;45.184;5.786;2023-06-14T17:59:18;27.80;48.80
42199;DHT22;27868;45.184;5.786;2023-06-14T18:02:03;27.70;49.70
42199;DHT22;27868;45.184;5.786;2023-06-14T18:04:47;27.70;48.50
42199;DHT22;27868;45.184;5.786;2023-06-14T18:07:32;27.60;49.20
42199;DHT22;27868;45.184;5.786;2023-06-14T18:10:16;27.60;49.00
42199;DHT22;27868;45.184;5.786;2023-06-14T18:13:01;27.50;48.30
42199;DHT22;27868;45.184;5.786;2023-06-14T18:15:46;27.50;47.40
42199;DHT22;27868;45.184;5.786;2023-06-14T18:18:30;27.40;47.80
42199;DHT22;27868;45.184;5.786;2023-06-14T18:21:15;27.40;48.90
42199;DHT22;27868;45.184;5.786;2023-06-14T18:23:59;27.30;47.90
42199;DHT22;27868;45.184;5.786;2023-06-14T18:26:44;27.20;48.50
42199;DHT22;27868;45.184;5.786;2023-06-14T18:29:28;27.20;49.40
42199;DHT22;27868;45.184;5.786;2023-06-14T18:32:13;27.20;50.70
42199;DHT22;27868;45.184;5.786;2023-06-14T18:34:57;27.10;52.10
42199;DHT22;27868;45.184;5.786;2023-06-14T18:37:42;27.10;52.60
42199;DHT22;27868;45.184;5.786;2023-06-14T18:40:27;27.00;52.90
42199;DHT22;27868;45.184;5.786;2023-06-14T18:43:11;27.00;52.70
42199;DHT22;27868;45.184;5.786;2023-06-14T18:45:56;27.00;53.20
42199;DHT22;27868;45.184;5.786;2023-06-14T18:48:40;26.90;53.50
42199;DHT22;27868;45.184;5.786;2023-06-14T18:51:27;26.80;53.60
42199;DHT22;27868;45.184;5.786;2023-06-14T18:54:12;26.80;53.70
42199;DHT22;27868;45.184;5.786;2023-06-14T18:56:56;26.70;53.80
42199;DHT22;27868;45.184;5.786;2023-06-14T18:59:40;26.60;53.90
42199;DHT22;27868;45.184;5.786;2023-06-14T19:02:25;26.60;54.00
42199;DHT22;27868;45.184;5.786;2023-06-14T19:05:09;26.50;53.90
42199;DHT22;27868;45.184;5.786;2023-06-14T19:07:54;26.50;54.30
42199;DHT22;27868;45.184;5.786;2023-06-14T19:10:39;26.40;54.80